Time;durP1;ratioP1;P1;durP2;ratioP2;P2;SDS_P1;SDS_P2;PMS_P1;PMS_P2;Temp;Humidity;BMP_temperature;BMP_pressure;BME280_temperature;BME280_humidity;BME280_pressure;Samples;Min_cycle;Max_cycle;Signal;HPM_P1;HPM_P2
2022/01/09 00:00:22;;;;;;;15.45;5.95;;;;;;;;;;5030445;28;20049;-77
2022/01/09 00:02:48;;;;;;;12.30;4.55;;;;;;;;;;5030288;28;20135;-77
2022/01/09 00:05:15;;;;;;;12.93;4.22;;;;;;;;;;5030481;28;20049;-77
2022/01/09 00:07:42;;;;;;;16.00;4.43;;;;;;;;;;5030721;28;20112;-77
2022/01/09 00:10:09;;;;;;;15.10;3.78;;;;;;;;;;5032982;28;20122;-77
2022/01/09 00:12:35;;;;;;;8.52;3.50;;;;;;;;;;5033827;28;20045;-77
2022/01/09 00:15:03;;;;;;;13.77;2.88;;;;;;;;;;5033926;28;20057;-77
2022/01/09 00:17:29;;;;;;;17.17;4.88;;;;;;;;;;5032869;28;20115;-77
2022/01/09 00:19:56;;;;;;;14.65;4.82;;;;;;;;;;5024618;28;20052;-77
2022/01/09 00:22:33;;;;;;;19.58;4.45;;;;;;;;;;5034008;28;20057;-77
2022/01/09 00:25:00;;;;;;;18.80;3.35;;;;;;;;;;5034183;28;20472;-77
2022/01/09 00:27:26;;;;;;;9.35;3.08;;;;;;;;;;5033748;28;20087;-77
2022/01/09 00:29:53;;;;;;;12.02;2.50;;;;;;;;;;5033575;28;20050;-76
2022/01/09 00:32:20;;;;;;;12.93;4.30;;;;;;;;;;5031823;28;20240;-77
2022/01/09 00:34:47;;;;;;;10.05;4.55;;;;;;;;;;5033857;28;20063;-77
2022/01/09 00:37:13;;;;;;;16.30;5.03;;;;;;;;;;5033624;28;20083;-77
2022/01/09 00:39:39;;;;;;;11.85;2.65;;;;;;;;;;5033666;28;20084;-75
2022/01/09 00:42:06;;;;;;;10.90;3.90;;;;;;;;;;5033360;28;20099;-77
2022/01/09 00:44:32;;;;;;;17.65;5.00;;;;;;;;;;5033540;28;20119;-77
2022/01/09 00:47:00;;;;;;;14.70;4.35;;;;;;;;;;5033512;28;20566;-78
2022/01/09 00:49:27;;;;;;;12.77;2.90;;;;;;;;;;5034244;28;20045;-76
2022/01/09 00:51:54;;;;;;;9.65;3.20;;;;;;;;;;5033758;28;20045;-76
2022/01/09 00:54:22;;;;;;;9.27;3.15;;;;;;;;;;5033703;28;20053;-77
2022/01/09 00:56:49;;;;;;;;;;;;;;;;;;5033682;28;20057;-75
2022/01/09 00:59:15;;;;;;;9.05;2.58;;;;;;;;;;5019229;28;20008;-75
2022/01/09 01:01:42;;;;;;;8.95;2.10;;;;;;;;;;5031703;28;20079;-74
2022/01/09 01:04:08;;;;;;;11.13;3.42;;;;;;;;;;5029923;28;20077;-74
2022/01/09 01:06:35;;;;;;;8.75;1.52;;;;;;;;;;5033366;28;20053;-74
2022/01/09 01:09:01;;;;;;;8.55;1.85;;;;;;;;;;5031837;28;20107;-74
2022/01/09 01:11:28;;;;;;;4.60;1.10;;;;;;;;;;5034005;28;20119;-74
2022/01/09 01:13:54;;;;;;;7.97;2.38;;;;;;;;;;5033603;28;20080;-74
2022/01/09 01:16:20;;;;;;;6.93;1.35;;;;;;;;;;5033510;28;20476;-74
2022/01/09 01:18:47;;;;;;;6.65;1.00;;;;;;;;;;5033427;28;20509;-74
2022/01/09 01:21:13;;;;;;;7.15;1.50;;;;;;;;;;5032954;28;20559;-74
2022/01/09 01:23:40;;;;;;;9.00;1.88;;;;;;;;;;5033346;28;20100;-74
2022/01/09 01:26:07;;;;;;;14.82;2.03;;;;;;;;;;5033276;28;20567;-74
2022/01/09 01:28:33;;;;;;;6.72;1.50;;;;;;;;;;5033605;28;20107;-74
2022/01/09 01:31:00;;;;;;;12.90;1.85;;;;;;;;;;5033307;28;20100;-74
2022/01/09 01:33:26;;;;;;;8.23;1.42;;;;;;;;;;5033184;28;20041;-74
2022/01/09 01:35:53;;;;;;;10.85;1.58;;;;;;;;;;5033253;28;20418;-74
2022/01/09 01:38:19;;;;;;;11.45;1.70;;;;;;;;;;5033245;28;20390;-74
2022/01/09 01:40:46;;;;;;;8.52;1.40;;;;;;;;;;5033098;28;20107;-74
2022/01/09 01:43:12;;;;;;;11.10;1.38;;;;;;;;;;5033287;28;20050;-74
2022/01/09 01:45:39;;;;;;;11.55;1.42;;;;;;;;;;5032959;28;20049;-74
2022/01/09 01:48:06;;;;;;;10.68;1.63;;;;;;;;;;5033309;28;20481;-74
2022/01/09 01:50:37;;;;;;;9.43;1.23;;;;;;;;;;5033129;28;20042;-74
2022/01/09 01:53:06;;;;;;;7.40;1.38;;;;;;;;;;5031671;28;20091;-74
2022/01/09 01:55:36;;;;;;;13.52;2.85;;;;;;;;;;5032673;28;20494;-74
2022/01/09 01:58:06;;;;;;;7.82;1.23;;;;;;;;;;5032821;28;20559;-74
2022/01/09 02:00:33;;;;;;;8.68;1.52;;;;;;;;;;5032890;28;20111;-74
2022/01/09 02:03:00;;;;;;;12.20;1.20;;;;;;;;;;5032428;28;20176;-74
2022/01/09 02:05:27;;;;;;;6.63;1.60;;;;;;;;;;5032492;28;20493;-74
2022/01/09 02:07:53;;;;;;;10.63;1.67;;;;;;;;;;5032920;28;20091;-74
2022/01/09 02:10:20;;;;;;;9.45;1.70;;;;;;;;;;5032862;28;20116;-74
2022/01/09 02:12:49;;;;;;;14.30;1.88;;;;;;;;;;5032486;28;20045;-74
2022/01/09 02:15:31;;;;;;;11.70;1.48;;;;;;;;;;5032659;28;20053;-75
2022/01/09 02:17:58;;;;;;;6.85;1.63;;;;;;;;;;5031056;28;20056;-74
2022/01/09 02:20:24;;;;;;;8.52;1.38;;;;;;;;;;5032645;28;20053;-75
2022/01/09 02:22:51;;;;;;;7.30;1.23;;;;;;;;;;5032284;28;20049;-75
2022/01/09 02:25:17;;;;;;;6.95;2.20;;;;;;;;;;5032200;28;20067;-74
2022/01/09 02:27:44;;;;;;;9.68;1.50;;;;;;;;;;5032125;28;20037;-75
2022/01/09 02:30:10;;;;;;;8.13;1.33;;;;;;;;;;5032535;28;20433;-74
2022/01/09 02:32:37;;;;;;;7.93;1.33;;;;;;;;;;5031618;28;20050;-75
2022/01/09 02:35:03;;;;;;;8.52;1.65;;;;;;;;;;5032709;28;20459;-74
2022/01/09 02:37:30;;;;;;;8.43;1.27;;;;;;;;;;5032125;28;20413;-75
2022/01/09 02:39:56;;;;;;;8.88;1.88;;;;;;;;;;5031950;28;20057;-75
2022/01/09 02:42:26;;;;;;;7.35;1.17;;;;;;;;;;5031966;28;20099;-75
2022/01/09 02:44:55;;;;;;;5.65;1.52;;;;;;;;;;5032162;28;20045;-75
2022/01/09 02:47:22;;;;;;;7.60;1.20;;;;;;;;;;5032311;28;20049;-75
2022/01/09 02:49:52;;;;;;;10.95;1.70;;;;;;;;;;5030741;28;20064;-74
2022/01/09 02:52:48;;;;;;;8.38;1.23;;;;;;;;;;5031824;28;20448;-75
2022/01/09 02:55:15;;;;;;;10.33;1.50;;;;;;;;;;5031931;28;20053;-74
2022/01/09 02:57:43;;;;;;;12.18;1.63;;;;;;;;;;5032161;28;20452;-74
2022/01/09 03:00:11;;;;;;;7.15;1.25;;;;;;;;;;5031862;28;20053;-74
2022/01/09 03:02:37;;;;;;;12.43;1.80;;;;;;;;;;5031531;28;20500;-74
2022/01/09 03:05:04;;;;;;;6.88;1.83;;;;;;;;;;5031927;28;20080;-74
2022/01/09 03:07:31;;;;;;;6.20;1.42;;;;;;;;;;5031575;28;20095;-74
2022/01/09 03:09:57;;;;;;;10.10;1.60;;;;;;;;;;5031631;28;20057;-74
2022/01/09 03:12:24;;;;;;;11.00;1.42;;;;;;;;;;5031849;28;20409;-74
2022/01/09 03:14:50;;;;;;;6.72;2.08;;;;;;;;;;5031672;28;20045;-74
2022/01/09 03:17:17;;;;;;;10.25;2.00;;;;;;;;;;5031834;28;20046;-74
2022/01/09 03:19:45;;;;;;;7.70;1.70;;;;;;;;;;5031689;28;20057;-74
2022/01/09 03:22:12;;;;;;;7.65;2.35;;;;;;;;;;5031733;28;20391;-74
2022/01/09 03:24:38;;;;;;;7.13;1.80;;;;;;;;;;5031439;28;20523;-74
2022/01/09 03:27:05;;;;;;;7.70;1.63;;;;;;;;;;5031600;28;20049;-74
2022/01/09 03:29:32;;;;;;;8.88;1.70;;;;;;;;;;5017457;28;20049;-75
2022/01/09 03:31:58;;;;;;;12.13;1.42;;;;;;;;;;5031448;28;20103;-75
2022/01/09 03:34:25;;;;;;;8.88;1.40;;;;;;;;;;5031560;28;20053;-75
2022/01/09 03:36:52;;;;;;;6.47;1.65;;;;;;;;;;5031437;28;20049;-75
2022/01/09 03:39:19;;;;;;;8.77;1.58;;;;;;;;;;5031225;28;20501;-75
2022/01/09 03:41:45;;;;;;;6.97;2.28;;;;;;;;;;5031597;28;20049;-75
2022/01/09 03:44:12;;;;;;;9.75;2.08;;;;;;;;;;5034104;28;20126;-75
2022/01/09 03:46:38;;;;;;;14.15;2.90;;;;;;;;;;5035161;28;20049;-75
2022/01/09 03:49:05;;;;;;;14.70;1.92;;;;;;;;;;5035354;28;20053;-74
2022/01/09 03:51:37;;;;;;;8.25;1.60;;;;;;;;;;5033727;28;20041;-74
2022/01/09 03:54:04;;;;;;;15.23;2.60;;;;;;;;;;5035369;28;20148;-74
2022/01/09 03:56:31;;;;;;;16.27;3.55;;;;;;;;;;5035392;28;20053;-74
2022/01/09 03:58:58;;;;;;;11.93;1.70;;;;;;;;;;5034982;28;20068;-74
2022/01/09 04:01:24;;;;;;;13.65;1.73;;;;;;;;;;5035387;28;20103;-74
2022/01/09 04:03:51;;;;;;;14.02;2.15;;;;;;;;;;5034639;28;20053;-74
2022/01/09 04:06:17;;;;;;;11.68;2.08;;;;;;;;;;5035115;28;20453;-75
2022/01/09 04:08:44;;;;;;;8.05;1.77;;;;;;;;;;5034733;28;20064;-74
2022/01/09 04:11:14;;;;;;;11.73;2.00;;;;;;;;;;5035091;28;20045;-75
2022/01/09 04:13:40;;;;;;;13.63;1.85;;;;;;;;;;5035002;28;20045;-75
2022/01/09 04:16:07;;;;;;;12.20;1.90;;;;;;;;;;5034633;28;20448;-76
2022/01/09 04:18:33;;;;;;;10.52;2.03;;;;;;;;;;5034522;28;20494;-76
2022/01/09 04:21:00;;;;;;;10.70;1.90;;;;;;;;;;5034876;28;20049;-74
2022/01/09 04:23:26;;;;;;;9.27;1.73;;;;;;;;;;5034744;28;20111;-75
2022/01/09 04:25:52;;;;;;;15.48;2.33;;;;;;;;;;5034477;28;20199;-75
2022/01/09 04:28:19;;;;;;;5.95;1.10;;;;;;;;;;5035623;28;20099;-75
2022/01/09 04:30:45;;;;;;;10.93;1.65;;;;;;;;;;5034938;28;20054;-75
2022/01/09 04:33:13;;;;;;;16.60;1.90;;;;;;;;;;5034705;28;20091;-74
2022/01/09 04:35:40;;;;;;;8.77;1.77;;;;;;;;;;5034534;28;20057;-74
2022/01/09 04:38:06;;;;;;;10.73;1.70;;;;;;;;;;5034607;28;20103;-75
2022/01/09 04:40:33;;;;;;;10.07;1.27;;;;;;;;;;5032955;28;20501;-75
2022/01/09 04:43:02;;;;;;;6.03;1.20;;;;;;;;;;5034226;28;20456;-75
2022/01/09 04:45:29;;;;;;;9.48;1.80;;;;;;;;;;5034045;28;20556;-75
2022/01/09 04:48:00;;;;;;;6.33;0.90;;;;;;;;;;5032764;28;20069;-75
2022/01/09 04:50:29;;;;;;;7.40;1.38;;;;;;;;;;5034138;28;20081;-74
2022/01/09 04:53:04;;;;;;;10.40;1.27;;;;;;;;;;5034488;28;20053;-74
2022/01/09 04:55:32;;;;;;;5.22;1.02;;;;;;;;;;5032027;28;20049;-74
2022/01/09 04:57:58;;;;;;;6.65;1.98;;;;;;;;;;5034164;28;20107;-75
2022/01/09 05:00:25;;;;;;;10.95;1.63;;;;;;;;;;5033903;28;20053;-75
2022/01/09 05:02:51;;;;;;;5.18;1.10;;;;;;;;;;5033827;28;20057;-75
2022/01/09 05:05:18;;;;;;;6.68;1.13;;;;;;;;;;5033920;28;20051;-74
2022/01/09 05:07:45;;;;;;;8.30;1.17;;;;;;;;;;5034055;28;20452;-74
2022/01/09 05:10:12;;;;;;;8.23;1.60;;;;;;;;;;5033583;28;20046;-76
2022/01/09 05:12:38;;;;;;;8.77;1.10;;;;;;;;;;5033956;28;20452;-75
2022/01/09 05:15:06;;;;;;;6.50;1.30;;;;;;;;;;5033544;28;20076;-75
2022/01/09 05:17:32;;;;;;;9.60;1.30;;;;;;;;;;5032353;28;20057;-75
2022/01/09 05:19:59;;;;;;;11.23;1.75;;;;;;;;;;5033710;28;20096;-75
2022/01/09 05:22:26;;;;;;;9.57;1.40;;;;;;;;;;5033807;28;20053;-75
2022/01/09 05:24:54;;;;;;;9.05;1.20;;;;;;;;;;5033315;28;20046;-75
2022/01/09 05:27:22;;;;;;;10.70;2.35;;;;;;;;;;5033308;28;20100;-74
2022/01/09 05:29:48;;;;;;;10.27;1.23;;;;;;;;;;5033317;28;20054;-75
2022/01/09 05:32:15;;;;;;;9.57;1.30;;;;;;;;;;5033247;28;20046;-75
2022/01/09 05:34:41;;;;;;;11.30;2.80;;;;;;;;;;5033246;28;20104;-75
2022/01/09 05:37:09;;;;;;;6.97;1.43;;;;;;;;;;5033179;28;20536;-74
2022/01/09 05:39:35;;;;;;;10.98;1.70;;;;;;;;;;5033413;28;20274;-75
2022/01/09 05:42:04;;;;;;;8.35;1.45;;;;;;;;;;5033420;28;20042;-76
2022/01/09 05:44:31;;;;;;;8.73;1.30;;;;;;;;;;5033381;28;20045;-75
2022/01/09 05:46:59;;;;;;;12.70;1.38;;;;;;;;;;5033177;28;20473;-75
2022/01/09 05:49:25;;;;;;;8.57;1.30;;;;;;;;;;5032954;28;20047;-75
2022/01/09 05:51:52;;;;;;;6.63;1.30;;;;;;;;;;5032834;28;20095;-75
2022/01/09 05:54:18;;;;;;;12.23;2.08;;;;;;;;;;5033202;28;20054;-75
2022/01/09 05:56:44;;;;;;;6.53;1.08;;;;;;;;;;5033129;28;20053;-75
2022/01/09 05:59:11;;;;;;;12.38;1.55;;;;;;;;;;5033041;28;20397;-75
2022/01/09 06:01:37;;;;;;;12.48;1.80;;;;;;;;;;5032672;28;20091;-75
2022/01/09 06:04:05;;;;;;;6.82;1.70;;;;;;;;;;5032559;28;20053;-75
2022/01/09 06:06:32;;;;;;;;;;;;;;;;;;5032260;28;20049;-75
2022/01/09 06:08:58;;;;;;;9.65;1.27;;;;;;;;;;5032858;28;19955;-74
2022/01/09 06:11:25;;;;;;;10.45;1.80;;;;;;;;;;5032727;28;20049;-75
2022/01/09 06:13:51;;;;;;;9.90;1.95;;;;;;;;;;5032419;28;20080;-75
2022/01/09 06:16:18;;;;;;;11.95;1.70;;;;;;;;;;5032749;28;20091;-75
2022/01/09 06:18:44;;;;;;;8.23;1.38;;;;;;;;;;5032603;28;20077;-75
2022/01/09 06:21:11;;;;;;;14.48;2.33;;;;;;;;;;5032331;28;20053;-75
2022/01/09 06:23:37;;;;;;;11.88;2.80;;;;;;;;;;5032543;28;20053;-75
2022/01/09 06:26:04;;;;;;;12.43;1.85;;;;;;;;;;5032243;28;20079;-74
2022/01/09 06:28:30;;;;;;;11.20;1.30;;;;;;;;;;5032296;28;20045;-74
2022/01/09 06:30:57;;;;;;;14.43;2.10;;;;;;;;;;5032506;28;20446;-74
2022/01/09 06:33:23;;;;;;;7.32;2.33;;;;;;;;;;5032176;28;20555;-75
2022/01/09 06:35:50;;;;;;;14.00;1.80;;;;;;;;;;5032026;28;20045;-75
2022/01/09 06:38:16;;;;;;;9.63;1.92;;;;;;;;;;5032391;28;20050;-75
2022/01/09 06:40:42;;;;;;;6.75;1.15;;;;;;;;;;5032357;28;20053;-74
2022/01/09 06:43:09;;;;;;;9.65;1.77;;;;;;;;;;5032010;28;20072;-75
2022/01/09 06:45:35;;;;;;;12.50;1.65;;;;;;;;;;5031828;28;20068;-76
2022/01/09 06:48:02;;;;;;;9.73;1.60;;;;;;;;;;5030670;28;20050;-75
2022/01/09 06:50:29;;;;;;;16.48;2.60;;;;;;;;;;5032235;28;20045;-75
2022/01/09 06:52:56;;;;;;;13.38;1.77;;;;;;;;;;5032056;28;20107;-75
2022/01/09 06:55:22;;;;;;;16.48;1.70;;;;;;;;;;5032081;28;20053;-75
2022/01/09 06:57:49;;;;;;;15.98;2.47;;;;;;;;;;5032283;28;20044;-75
2022/01/09 07:00:17;;;;;;;12.48;1.85;;;;;;;;;;5031792;28;20045;-75
2022/01/09 07:02:44;;;;;;;10.90;1.70;;;;;;;;;;5031472;28;20509;-75
2022/01/09 07:05:12;;;;;;;11.43;2.53;;;;;;;;;;5031605;28;20045;-75
2022/01/09 07:07:38;;;;;;;13.60;1.90;;;;;;;;;;5031670;28;20103;-75
2022/01/09 07:10:05;;;;;;;12.70;1.65;;;;;;;;;;5031629;28;20489;-75
2022/01/09 07:12:31;;;;;;;9.38;1.42;;;;;;;;;;5031928;28;20120;-75
2022/01/09 07:14:58;;;;;;;18.95;2.83;;;;;;;;;;5031574;28;20045;-75
2022/01/09 07:17:24;;;;;;;15.68;2.08;;;;;;;;;;5031279;28;20495;-75
2022/01/09 07:19:51;;;;;;;13.95;1.80;;;;;;;;;;5031232;28;20486;-75
2022/01/09 07:22:18;;;;;;;10.27;1.50;;;;;;;;;;5031452;28;20053;-74
2022/01/09 07:24:44;;;;;;;16.77;2.03;;;;;;;;;;5031812;28;20102;-74
2022/01/09 07:27:11;;;;;;;10.82;1.80;;;;;;;;;;5031321;28;20516;-74
2022/01/09 07:29:38;;;;;;;13.52;2.25;;;;;;;;;;5031409;28;20548;-75
2022/01/09 07:32:04;;;;;;;8.57;1.80;;;;;;;;;;5031291;28;20046;-74
2022/01/09 07:34:31;;;;;;;14.43;2.00;;;;;;;;;;5031650;28;20486;-75
2022/01/09 07:36:58;;;;;;;12.80;1.95;;;;;;;;;;5031579;28;20108;-75
2022/01/09 07:39:24;;;;;;;12.45;2.67;;;;;;;;;;5031515;28;20049;-74
2022/01/09 07:41:51;;;;;;;9.35;1.60;;;;;;;;;;5031368;28;20053;-75
2022/01/09 07:44:17;;;;;;;11.02;1.50;;;;;;;;;;5017710;28;20045;-76
2022/01/09 07:46:44;;;;;;;14.02;1.88;;;;;;;;;;5031441;28;20091;-76
2022/01/09 07:49:10;;;;;;;12.82;1.83;;;;;;;;;;5031462;28;20049;-76
2022/01/09 07:51:36;;;;;;;9.57;1.77;;;;;;;;;;5031590;28;20554;-76
2022/01/09 07:54:17;;;;;;;11.98;2.08;;;;;;;;;;5031472;28;20160;-75
2022/01/09 07:56:44;;;;;;;9.35;1.60;;;;;;;;;;5031252;28;20049;-76
2022/01/09 07:59:10;;;;;;;12.20;2.25;;;;;;;;;;5028756;28;20053;-75
2022/01/09 08:01:37;;;;;;;11.15;1.50;;;;;;;;;;5030171;28;20103;-74
2022/01/09 08:04:03;;;;;;;14.23;1.73;;;;;;;;;;5029362;28;20065;-75
2022/01/09 08:06:30;;;;;;;12.88;1.65;;;;;;;;;;5031319;28;20057;-75
2022/01/09 08:08:56;;;;;;;8.38;1.83;;;;;;;;;;5030724;28;20104;-74
2022/01/09 08:11:23;;;;;;;11.77;1.60;;;;;;;;;;5030507;28;20127;-75
2022/01/09 08:13:49;;;;;;;11.60;1.85;;;;;;;;;;5029432;28;20443;-75
2022/01/09 08:16:16;;;;;;;11.98;2.38;;;;;;;;;;5013766;28;20103;-75
2022/01/09 08:18:42;;;;;;;6.63;1.63;;;;;;;;;;5011618;28;20278;-75
2022/01/09 08:21:08;;;;;;;12.05;1.98;;;;;;;;;;5013140;28;20099;-75
2022/01/09 08:23:36;;;;;;;12.35;2.38;;;;;;;;;;5011971;28;20050;-74
2022/01/09 08:26:03;;;;;;;14.27;2.35;;;;;;;;;;5015622;28;20096;-75
2022/01/09 08:28:29;;;;;;;10.18;2.08;;;;;;;;;;5010577;28;20112;-75
2022/01/09 08:30:55;;;;;;;11.38;2.05;;;;;;;;;;5027462;28;20563;-76
2022/01/09 08:33:24;;;;;;;8.30;1.58;;;;;;;;;;5034299;28;20079;-75
2022/01/09 08:35:51;;;;;;;15.68;2.63;;;;;;;;;;5033973;28;20049;-74
2022/01/09 08:38:20;;;;;;;10.93;3.03;;;;;;;;;;5034603;28;20061;-74
2022/01/09 08:40:47;;;;;;;13.35;2.63;;;;;;;;;;5033500;28;20053;-74
2022/01/09 08:43:13;;;;;;;10.95;1.98;;;;;;;;;;5033438;28;20046;-74
2022/01/09 08:45:39;;;;;;;12.65;3.88;;;;;;;;;;5033782;28;20053;-75
2022/01/09 08:48:06;;;;;;;10.57;3.20;;;;;;;;;;5033091;28;20509;-75
2022/01/09 08:50:33;;;;;;;14.23;3.25;;;;;;;;;;5032901;28;20188;-75
2022/01/09 08:52:59;;;;;;;13.80;3.75;;;;;;;;;;5033257;28;20099;-75
2022/01/09 08:55:26;;;;;;;12.30;2.90;;;;;;;;;;5033590;28;20119;-75
2022/01/09 08:57:52;;;;;;;15.10;3.40;;;;;;;;;;5033886;28;20108;-74
2022/01/09 09:00:19;;;;;;;12.70;2.63;;;;;;;;;;5033231;28;20413;-74
2022/01/09 09:02:46;;;;;;;13.35;3.88;;;;;;;;;;5033641;28;20049;-74
2022/01/09 09:05:13;;;;;;;7.97;1.80;;;;;;;;;;5031541;28;20045;-74
2022/01/09 09:07:40;;;;;;;10.77;2.60;;;;;;;;;;5033118;28;20161;-74
2022/01/09 09:10:09;;;;;;;10.52;2.90;;;;;;;;;;5032996;28;20457;-73
2022/01/09 09:12:35;;;;;;;17.30;7.55;;;;;;;;;;5032177;28;20050;-74
2022/01/09 09:15:03;;;;;;;44.95;22.40;;;;;;;;;;5032178;28;20042;-74
2022/01/09 09:17:30;;;;;;;63.58;35.75;;;;;;;;;;5032292;28;20045;-74
2022/01/09 09:19:57;;;;;;;59.20;34.13;;;;;;;;;;5032942;28;20128;-74
2022/01/09 09:22:23;;;;;;;42.17;22.25;;;;;;;;;;5032002;28;20100;-74
2022/01/09 09:24:50;;;;;;;31.80;18.83;;;;;;;;;;5032945;28;20119;-74
2022/01/09 09:27:17;;;;;;;35.97;20.85;;;;;;;;;;5033616;28;20099;-73
2022/01/09 09:29:44;;;;;;;21.10;9.50;;;;;;;;;;5032911;28;20041;-74
2022/01/09 09:32:10;;;;;;;17.17;8.82;;;;;;;;;;5033050;28;20089;-74
2022/01/09 09:34:39;;;;;;;17.38;10.25;;;;;;;;;;5032197;28;20453;-74
2022/01/09 09:37:06;;;;;;;10.07;6.13;;;;;;;;;;5031926;28;20119;-73
2022/01/09 09:39:33;;;;;;;11.02;6.55;;;;;;;;;;5032759;28;20041;-73
2022/01/09 09:42:00;;;;;;;9.80;5.70;;;;;;;;;;5032511;28;20081;-74
2022/01/09 09:44:26;;;;;;;12.50;8.45;;;;;;;;;;5032368;28;20045;-72
2022/01/09 09:46:53;;;;;;;12.57;4.97;;;;;;;;;;5033204;28;20049;-73
2022/01/09 09:49:21;;;;;;;11.93;4.50;;;;;;;;;;5032014;28;20041;-71
2022/01/09 09:51:48;;;;;;;15.88;4.10;;;;;;;;;;5032549;28;20049;-73
2022/01/09 09:54:14;;;;;;;6.43;3.75;;;;;;;;;;5032079;28;20046;-74
2022/01/09 09:56:41;;;;;;;9.65;2.42;;;;;;;;;;5032812;28;20103;-74
2022/01/09 09:59:07;;;;;;;6.32;2.50;;;;;;;;;;5031368;28;20057;-75
2022/01/09 10:01:35;;;;;;;7.38;2.55;;;;;;;;;;5029673;28;20103;-73
2022/01/09 10:04:01;;;;;;;;;;;;;;;;;;5029008;28;20057;-74
2022/01/09 10:06:35;;;;;;;6.63;2.37;;;;;;;;;;5027351;28;19921;-74
2022/01/09 10:09:06;;;;;;;6.85;1.83;;;;;;;;;;5032442;28;20054;-73
2022/01/09 10:11:45;;;;;;;4.85;1.92;;;;;;;;;;5032109;28;20107;-74
2022/01/09 10:14:26;;;;;;;7.35;1.70;;;;;;;;;;5032259;28;20111;-73
2022/01/09 10:17:04;;;;;;;8.65;3.60;;;;;;;;;;5030050;28;20151;-72
2022/01/09 10:19:40;;;;;;;9.27;3.30;;;;;;;;;;5019069;28;20128;-72
2022/01/09 10:22:06;;;;;;;6.53;2.60;;;;;;;;;;5032132;28;20049;-72
2022/01/09 10:24:33;;;;;;;7.30;1.60;;;;;;;;;;5031626;28;20457;-72
2022/01/09 10:27:00;;;;;;;9.02;2.92;;;;;;;;;;5031711;28;20046;-73
2022/01/09 10:29:29;;;;;;;6.32;2.45;;;;;;;;;;5031980;28;20119;-73
2022/01/09 10:31:56;;;;;;;10.60;2.08;;;;;;;;;;5031600;28;20390;-72
2022/01/09 10:34:22;;;;;;;7.88;2.45;;;;;;;;;;5031766;28;20045;-72
2022/01/09 10:36:51;;;;;;;6.80;2.22;;;;;;;;;;5031670;28;20136;-73
2022/01/09 10:39:19;;;;;;;7.90;2.25;;;;;;;;;;5031693;28;20149;-72
2022/01/09 10:41:47;;;;;;;10.40;2.58;;;;;;;;;;5031423;28;20072;-73
2022/01/09 10:44:14;;;;;;;6.78;1.90;;;;;;;;;;5030742;28;20516;-72
2022/01/09 10:46:41;;;;;;;9.82;2.60;;;;;;;;;;5031555;28;20049;-72
2022/01/09 10:49:12;;;;;;;6.65;2.08;;;;;;;;;;5031784;28;20041;-74
2022/01/09 10:51:39;;;;;;;9.13;2.50;;;;;;;;;;5031459;28;20540;-75
2022/01/09 10:54:07;;;;;;;8.30;2.65;;;;;;;;;;5031175;28;20448;-74
2022/01/09 10:56:34;;;;;;;13.02;3.42;;;;;;;;;;5031729;28;20481;-73
2022/01/09 10:59:00;;;;;;;10.35;3.50;;;;;;;;;;5031742;28;20057;-72
2022/01/09 11:01:31;;;;;;;13.13;6.25;;;;;;;;;;5031723;28;20061;-74
2022/01/09 11:04:02;;;;;;;13.48;7.15;;;;;;;;;;5022152;28;20049;-73
2022/01/09 11:06:31;;;;;;;11.65;4.40;;;;;;;;;;5043768;28;20095;-74
2022/01/09 11:08:58;;;;;;;18.75;8.82;;;;;;;;;;5029040;28;20513;-72
2022/01/09 11:11:38;;;;;;;13.48;7.03;;;;;;;;;;5029444;28;20054;-73
2022/01/09 11:14:07;;;;;;;18.95;9.77;;;;;;;;;;5031237;28;20057;-73
2022/01/09 11:16:34;;;;;;;12.65;6.65;;;;;;;;;;5029627;28;20049;-73
2022/01/09 11:19:03;;;;;;;18.35;8.80;;;;;;;;;;5029629;28;20058;-72
2022/01/09 11:21:29;;;;;;;14.95;7.70;;;;;;;;;;5028086;28;20103;-72
2022/01/09 11:24:15;;;;;;;12.77;3.35;;;;;;;;;;5030005;28;20482;-72
2022/01/09 11:26:44;;;;;;;14.55;5.60;;;;;;;;;;5012044;28;20077;-73
2022/01/09 11:29:11;;;;;;;9.45;4.10;;;;;;;;;;5010941;28;20514;-73
2022/01/09 11:31:55;;;;;;;11.00;4.28;;;;;;;;;;5027839;28;20046;-71
2022/01/09 11:34:30;;;;;;;7.50;2.55;;;;;;;;;;5031640;28;20049;-72
2022/01/09 11:37:09;;;;;;;8.23;3.22;;;;;;;;;;5030644;28;20053;-71
2022/01/09 11:39:36;;;;;;;5.25;1.63;;;;;;;;;;5031667;28;20123;-71
2022/01/09 11:42:07;;;;;;;10.73;2.03;;;;;;;;;;5029379;28;20049;-71
2022/01/09 11:44:33;;;;;;;5.85;2.22;;;;;;;;;;5031622;28;20053;-71
2022/01/09 11:47:04;;;;;;;8.77;1.88;;;;;;;;;;5030477;28;20107;-71
2022/01/09 11:49:57;;;;;;;6.60;2.15;;;;;;;;;;5030984;28;20068;-71
2022/01/09 11:52:24;;;;;;;6.72;2.75;;;;;;;;;;5030034;28;20050;-71
2022/01/09 11:54:51;;;;;;;;;;;;;;;;;;5030510;28;20123;-72
2022/01/09 11:57:34;;;;;;;8.05;2.50;;;;;;;;;;5030669;28;19979;-74
2022/01/09 12:00:00;;;;;;;7.35;2.80;;;;;;;;;;5031190;28;20104;-73
2022/01/09 12:02:31;;;;;;;7.90;2.40;;;;;;;;;;5030483;28;20050;-72
2022/01/09 12:04:58;;;;;;;9.80;3.13;;;;;;;;;;5032574;28;20286;-72
2022/01/09 12:07:34;;;;;;;11.98;3.85;;;;;;;;;;5034305;28;20480;-73
2022/01/09 12:10:02;;;;;;;8.23;2.85;;;;;;;;;;5034821;28;20492;-72
2022/01/09 12:12:31;;;;;;;6.60;2.35;;;;;;;;;;5034139;28;20049;-71
2022/01/09 12:15:02;;;;;;;10.75;3.03;;;;;;;;;;5034116;28;20049;-72
2022/01/09 12:17:39;;;;;;;9.80;3.22;;;;;;;;;;5034107;28;20049;-72
2022/01/09 12:20:21;;;;;;;7.97;1.98;;;;;;;;;;5035002;28;20057;-71
2022/01/09 12:22:49;;;;;;;9.02;2.30;;;;;;;;;;5033494;28;20524;-73
2022/01/09 12:25:15;;;;;;;;;;;;;;;;;;5033124;28;20078;-72
2022/01/09 12:27:43;;;;;;;6.43;2.22;;;;;;;;;;5033608;28;19924;-72
2022/01/09 12:30:30;;;;;;;5.28;1.90;;;;;;;;;;5034035;28;20485;-76
2022/01/09 12:32:56;;;;;;;7.20;1.67;;;;;;;;;;5032394;28;20042;-71
2022/01/09 12:35:23;;;;;;;8.97;2.03;;;;;;;;;;5034941;28;20091;-73
2022/01/09 12:37:54;;;;;;;7.20;1.95;;;;;;;;;;5033272;28;20567;-75
2022/01/09 12:40:22;;;;;;;9.40;2.90;;;;;;;;;;5033468;28;20127;-73
2022/01/09 12:42:50;;;;;;;8.02;2.10;;;;;;;;;;5033423;28;20049;-74
2022/01/09 12:45:21;;;;;;;8.70;2.22;;;;;;;;;;5034539;28;20076;-72
2022/01/09 12:47:48;;;;;;;8.93;2.30;;;;;;;;;;5033405;28;20552;-73
2022/01/09 12:50:15;;;;;;;9.60;3.22;;;;;;;;;;5033955;28;20053;-76
2022/01/09 12:52:42;;;;;;;6.57;1.97;;;;;;;;;;5029504;28;20037;-72
2022/01/09 12:55:09;;;;;;;7.50;3.22;;;;;;;;;;5034255;28;20049;-73
2022/01/09 12:57:56;;;;;;;9.23;2.95;;;;;;;;;;5032758;28;20132;-71
2022/01/09 13:00:29;;;;;;;7.32;2.10;;;;;;;;;;5032642;28;20115;-73
2022/01/09 13:02:57;;;;;;;8.75;2.28;;;;;;;;;;5032697;28;20049;-73
2022/01/09 13:05:24;;;;;;;10.48;3.95;;;;;;;;;;5033481;28;20598;-73
2022/01/09 13:08:00;;;;;;;7.72;3.22;;;;;;;;;;5033649;28;20053;-72
2022/01/09 13:10:28;;;;;;;11.77;3.15;;;;;;;;;;5033915;28;20053;-74
2022/01/09 13:12:58;;;;;;;11.02;3.72;;;;;;;;;;5027104;28;20103;-73
2022/01/09 13:15:31;;;;;;;17.10;5.80;;;;;;;;;;5013212;28;20482;-74
2022/01/09 13:17:57;;;;;;;10.60;4.68;;;;;;;;;;5030368;28;20080;-73
2022/01/09 13:20:24;;;;;;;17.58;6.03;;;;;;;;;;5033361;28;20054;-73
2022/01/09 13:23:08;;;;;;;10.45;3.30;;;;;;;;;;5032908;28;20049;-75
2022/01/09 13:25:41;;;;;;;18.10;7.80;;;;;;;;;;5031685;28;20082;-74
2022/01/09 13:28:16;;;;;;;17.40;8.73;;;;;;;;;;5032075;28;20041;-73
2022/01/09 13:30:42;;;;;;;17.60;7.13;;;;;;;;;;5033705;28;20049;-74
2022/01/09 13:33:09;;;;;;;18.80;8.27;;;;;;;;;;5032583;28;20054;-76
2022/01/09 13:35:35;;;;;;;16.95;6.90;;;;;;;;;;5033265;28;20107;-74
2022/01/09 13:38:06;;;;;;;14.80;8.07;;;;;;;;;;5032559;28;20064;-73
2022/01/09 13:40:32;;;;;;;16.60;8.20;;;;;;;;;;5032678;28;20045;-73
2022/01/09 13:43:00;;;;;;;16.63;6.68;;;;;;;;;;5031486;28;20045;-73
2022/01/09 13:45:27;;;;;;;15.25;8.23;;;;;;;;;;5031421;28;20053;-73
2022/01/09 13:47:56;;;;;;;19.38;8.55;;;;;;;;;;5032053;28;20049;-73
2022/01/09 13:50:42;;;;;;;16.30;7.30;;;;;;;;;;5033329;28;20046;-73
2022/01/09 13:53:10;;;;;;;13.47;6.30;;;;;;;;;;5032246;28;20107;-73
2022/01/09 13:55:37;;;;;;;10.70;5.28;;;;;;;;;;5033081;28;20144;-73
2022/01/09 13:58:07;;;;;;;13.13;4.57;;;;;;;;;;5032198;28;20514;-73
2022/01/09 14:00:35;;;;;;;13.18;5.13;;;;;;;;;;5031244;28;20053;-73
2022/01/09 14:03:01;;;;;;;;;;;;;;;;;;5032453;28;20081;-73
2022/01/09 14:05:38;;;;;;;16.75;4.72;;;;;;;;;;5032786;28;20430;-73
2022/01/09 14:08:05;;;;;;;17.00;6.50;;;;;;;;;;5031904;28;20451;-73
2022/01/09 14:10:51;;;;;;;16.65;5.03;;;;;;;;;;5032280;28;20405;-73
2022/01/09 14:13:18;;;;;;;18.23;6.70;;;;;;;;;;5031958;28;20076;-73
2022/01/09 14:15:45;;;;;;;18.92;5.60;;;;;;;;;;5032497;28;20041;-73
2022/01/09 14:18:29;;;;;;;13.98;5.35;;;;;;;;;;5031636;28;20489;-73
2022/01/09 14:21:01;;;;;;;18.60;6.45;;;;;;;;;;5020664;28;20489;-73
2022/01/09 14:23:31;;;;;;;26.30;8.35;;;;;;;;;;5031498;28;20058;-73
2022/01/09 14:26:03;;;;;;;31.45;9.85;;;;;;;;;;5032021;28;20154;-73
2022/01/09 14:28:30;;;;;;;45.47;22.67;;;;;;;;;;5030611;28;20053;-73
2022/01/09 14:31:02;;;;;;;38.25;21.83;;;;;;;;;;5031882;28;20045;-73
2022/01/09 14:33:29;;;;;;;46.45;29.10;;;;;;;;;;5032159;28;20095;-72
2022/01/09 14:36:06;;;;;;;64.65;29.38;;;;;;;;;;5030418;28;20545;-73
2022/01/09 14:38:33;;;;;;;39.87;20.10;;;;;;;;;;5031808;28;20100;-73
2022/01/09 14:41:04;;;;;;;33.45;14.80;;;;;;;;;;5031508;28;20515;-73